sensor_id;sensor_type;location;lat;lon;timestamp;temperature;humidity
22676;DHT22;12521;43.310;21.876;2023-05-07T00:02:29;14.6;96.0
22676;DHT22;12521;43.310;21.876;2023-05-07T00:07:06;14.6;96.0
22676;DHT22;12521;43.310;21.876;2023-05-07T00:11:42;14.6;96.0
22676;DHT22;12521;43.310;21.876;2023-05-07T00:16:19;14.6;96.0
22676;DHT22;12521;43.310;21.876;2023-05-07T00:20:56;14.5;96.0
22676;DHT22;12521;43.310;21.876;2023-05-07T00:25:33;14.5;96.0
22676;DHT22;12521;43.310;21.876;2023-05-07T00:30:12;14.4;96.0
22676;DHT22;12521;43.310;21.876;2023-05-07T00:34:50;14.4;96.0
22676;DHT22;12521;43.310;21.876;2023-05-07T00:39:27;14.4;96.0
22676;DHT22;12521;43.310;21.876;2023-05-07T00:44:03;14.2;96.0
22676;DHT22;12521;43.310;21.876;2023-05-07T00:48:41;14.2;96.0
22676;DHT22;12521;43.310;21.876;2023-05-07T00:53:18;14.1;96.0
22676;DHT22;12521;43.310;21.876;2023-05-07T00:57:57;14.1;96.0
22676;DHT22;12521;43.310;21.876;2023-05-07T01:02:34;14.0;96.0
22676;DHT22;12521;43.310;21.876;2023-05-07T01:07:12;14.0;96.0
22676;DHT22;12521;43.310;21.876;2023-05-07T01:11:50;13.8;96.0
22676;DHT22;12521;43.310;21.876;2023-05-07T01:16:31;13.8;96.0
22676;DHT22;12521;43.310;21.876;2023-05-07T01:21:11;13.8;96.0
22676;DHT22;12521;43.310;21.876;2023-05-07T01:25:54;13.8;96.0
22676;DHT22;12521;43.310;21.876;2023-05-07T01:30:34;13.7;96.0
22676;DHT22;12521;43.310;21.876;2023-05-07T01:35:33;13.7;96.0
22676;DHT22;12521;43.310;21.876;2023-05-07T01:40:27;13.6;96.0
22676;DHT22;12521;43.310;21.876;2023-05-07T01:45:06;13.6;96.0
22676;DHT22;12521;43.310;21.876;2023-05-07T01:49:46;13.4;96.0
22676;DHT22;12521;43.310;21.876;2023-05-07T01:54:26;13.4;96.0
22676;DHT22;12521;43.310;21.876;2023-05-07T01:59:04;13.4;96.0
22676;DHT22;12521;43.310;21.876;2023-05-07T02:03:41;13.4;96.0
22676;DHT22;12521;43.310;21.876;2023-05-07T02:08:17;13.4;96.0
22676;DHT22;12521;43.310;21.876;2023-05-07T02:12:54;13.3;96.0
22676;DHT22;12521;43.310;21.876;2023-05-07T02:17:31;13.3;96.0
22676;DHT22;12521;43.310;21.876;2023-05-07T02:22:09;13.2;96.0
22676;DHT22;12521;43.310;21.876;2023-05-07T02:26:46;13.2;96.0
22676;DHT22;12521;43.310;21.876;2023-05-07T02:31:22;13.1;96.0
22676;DHT22;12521;43.310;21.876;2023-05-07T02:36:06;13.1;96.0
22676;DHT22;12521;43.310;21.876;2023-05-07T02:40:46;13.0;96.0
22676;DHT22;12521;43.310;21.876;2023-05-07T02:45:22;13.0;96.0
22676;DHT22;12521;43.310;21.876;2023-05-07T02:49:59;13.0;96.0
22676;DHT22;12521;43.310;21.876;2023-05-07T02:54:36;13.0;96.0
22676;DHT22;12521;43.310;21.876;2023-05-07T02:59:12;13.0;96.0
22676;DHT22;12521;43.310;21.876;2023-05-07T03:03:49;12.9;96.0
22676;DHT22;12521;43.310;21.876;2023-05-07T03:08:26;12.9;96.0
22676;DHT22;12521;43.310;21.876;2023-05-07T03:13:04;12.8;96.0
22676;DHT22;12521;43.310;21.876;2023-05-07T03:17:41;12.8;96.0
22676;DHT22;12521;43.310;21.876;2023-05-07T03:22:17;12.7;96.0
22676;DHT22;12521;43.310;21.876;2023-05-07T03:26:54;12.7;96.0
22676;DHT22;12521;43.310;21.876;2023-05-07T03:31:31;12.6;96.0
22676;DHT22;12521;43.310;21.876;2023-05-07T03:36:07;12.6;96.0
22676;DHT22;12521;43.310;21.876;2023-05-07T03:40:44;12.6;96.0
22676;DHT22;12521;43.310;21.876;2023-05-07T03:45:21;12.6;96.0
22676;DHT22;12521;43.310;21.876;2023-05-07T03:49:57;12.5;96.0
22676;DHT22;12521;43.310;21.876;2023-05-07T03:54:34;12.5;96.0
22676;DHT22;12521;43.310;21.876;2023-05-07T03:59:11;12.5;96.0
22676;DHT22;12521;43.310;21.876;2023-05-07T04:03:49;12.4;96.0
22676;DHT22;12521;43.310;21.876;2023-05-07T04:08:25;12.4;96.0
22676;DHT22;12521;43.310;21.876;2023-05-07T04:13:02;12.4;96.0
22676;DHT22;12521;43.310;21.876;2023-05-07T04:17:39;12.4;96.0
22676;DHT22;12521;43.310;21.876;2023-05-07T04:22:16;12.5;96.0
22676;DHT22;12521;43.310;21.876;2023-05-07T04:26:53;12.5;96.0
22676;DHT22;12521;43.310;21.876;2023-05-07T04:31:30;12.6;96.0
22676;DHT22;12521;43.310;21.876;2023-05-07T04:36:07;12.6;96.0
22676;DHT22;12521;43.310;21.876;2023-05-07T04:40:45;12.8;96.0
22676;DHT22;12521;43.310;21.876;2023-05-07T04:45:22;12.8;96.0
22676;DHT22;12521;43.310;21.876;2023-05-07T04:49:59;12.9;96.0
22676;DHT22;12521;43.310;21.876;2023-05-07T04:54:36;12.9;96.0
22676;DHT22;12521;43.310;21.876;2023-05-07T04:59:12;12.9;96.0
22676;DHT22;12521;43.310;21.876;2023-05-07T05:03:48;12.9;96.0
22676;DHT22;12521;43.310;21.876;2023-05-07T05:08:24;12.9;96.0
22676;DHT22;12521;43.310;21.876;2023-05-07T05:13:01;12.9;96.0
22676;DHT22;12521;43.310;21.876;2023-05-07T05:17:37;12.9;96.0
22676;DHT22;12521;43.310;21.876;2023-05-07T05:22:13;13.0;96.0
22676;DHT22;12521;43.310;21.876;2023-05-07T05:26:50;13.0;96.0
22676;DHT22;12521;43.310;21.876;2023-05-07T05:31:29;13.0;96.0
22676;DHT22;12521;43.310;21.876;2023-05-07T05:36:09;13.0;96.0
22676;DHT22;12521;43.310;21.876;2023-05-07T05:40:47;13.3;96.0
22676;DHT22;12521;43.310;21.876;2023-05-07T05:45:24;13.3;96.0
22676;DHT22;12521;43.310;21.876;2023-05-07T05:50:02;13.6;96.0
22676;DHT22;12521;43.310;21.876;2023-05-07T05:54:42;13.6;96.0
22676;DHT22;12521;43.310;21.876;2023-05-07T05:59:19;13.6;96.0
22676;DHT22;12521;43.310;21.876;2023-05-07T06:03:56;13.8;96.0
22676;DHT22;12521;43.310;21.876;2023-05-07T06:08:33;13.8;96.0
22676;DHT22;12521;43.310;21.876;2023-05-07T06:13:09;14.1;96.0
22676;DHT22;12521;43.310;21.876;2023-05-07T06:17:45;14.1;96.0
22676;DHT22;12521;43.310;21.876;2023-05-07T06:22:22;14.4;96.0
22676;DHT22;12521;43.310;21.876;2023-05-07T06:26:58;14.4;96.0
22676;DHT22;12521;43.310;21.876;2023-05-07T06:31:35;14.8;96.0
22676;DHT22;12521;43.310;21.876;2023-05-07T06:36:12;14.8;96.0
22676;DHT22;12521;43.310;21.876;2023-05-07T06:40:49;15.1;96.0
22676;DHT22;12521;43.310;21.876;2023-05-07T06:45:26;15.1;96.0
22676;DHT22;12521;43.310;21.876;2023-05-07T06:50:03;15.4;96.0
22676;DHT22;12521;43.310;21.876;2023-05-07T06:54:44;15.4;96.0
22676;DHT22;12521;43.310;21.876;2023-05-07T06:59:20;15.4;96.0
22676;DHT22;12521;43.310;21.876;2023-05-07T07:03:57;15.6;96.0
22676;DHT22;12521;43.310;21.876;2023-05-07T07:08:34;15.6;96.0
22676;DHT22;12521;43.310;21.876;2023-05-07T07:13:11;15.9;96.0
22676;DHT22;12521;43.310;21.876;2023-05-07T07:17:48;15.9;96.0
22676;DHT22;12521;43.310;21.876;2023-05-07T07:22:25;16.3;96.0
22676;DHT22;12521;43.310;21.876;2023-05-07T07:27:01;16.3;96.0
22676;DHT22;12521;43.310;21.876;2023-05-07T07:31:38;16.7;96.0
22676;DHT22;12521;43.310;21.876;2023-05-07T07:36:15;16.7;96.0
22676;DHT22;12521;43.310;21.876;2023-05-07T07:40:52;17.1;96.0
22676;DHT22;12521;43.310;21.876;2023-05-07T07:45:28;17.1;96.0
22676;DHT22;12521;43.310;21.876;2023-05-07T07:50:06;17.5;96.0
22676;DHT22;12521;43.310;21.876;2023-05-07T07:54:45;17.5;96.0
22676;DHT22;12521;43.310;21.876;2023-05-07T07:59:21;17.5;96.0
22676;DHT22;12521;43.310;21.876;2023-05-07T08:03:57;18.0;96.0
22676;DHT22;12521;43.310;21.876;2023-05-07T08:08:34;18.0;96.0
22676;DHT22;12521;43.310;21.876;2023-05-07T08:13:11;18.4;96.0
22676;DHT22;12521;43.310;21.876;2023-05-07T08:17:47;18.4;96.0
22676;DHT22;12521;43.310;21.876;2023-05-07T08:22:24;19.0;96.0
22676;DHT22;12521;43.310;21.876;2023-05-07T08:27:01;19.0;96.0
22676;DHT22;12521;43.310;21.876;2023-05-07T08:31:38;19.5;96.0
22676;DHT22;12521;43.310;21.876;2023-05-07T08:36:14;19.5;96.0
22676;DHT22;12521;43.310;21.876;2023-05-07T08:40:51;19.9;96.0
22676;DHT22;12521;43.310;21.876;2023-05-07T08:45:33;19.9;96.0
22676;DHT22;12521;43.310;21.876;2023-05-07T08:50:11;20.3;96.0
22676;DHT22;12521;43.310;21.876;2023-05-07T08:54:49;20.3;96.0
22676;DHT22;12521;43.310;21.876;2023-05-07T08:59:26;20.3;96.0
22676;DHT22;12521;43.310;21.876;2023-05-07T09:04:02;20.7;96.0
22676;DHT22;12521;43.310;21.876;2023-05-07T09:08:41;20.7;96.0
22676;DHT22;12521;43.310;21.876;2023-05-07T09:13:28;21.1;96.0
22676;DHT22;12521;43.310;21.876;2023-05-07T09:18:05;21.1;96.0
22676;DHT22;12521;43.310;21.876;2023-05-07T09:22:42;21.4;95.0
22676;DHT22;12521;43.310;21.876;2023-05-07T09:27:18;21.4;95.0
22676;DHT22;12521;43.310;21.876;2023-05-07T09:31:55;21.7;94.0
22676;DHT22;12521;43.310;21.876;2023-05-07T09:36:32;21.7;94.0
22676;DHT22;12521;43.310;21.876;2023-05-07T09:41:13;22.0;92.0
22676;DHT22;12521;43.310;21.876;2023-05-07T09:45:50;22.0;92.0
22676;DHT22;12521;43.310;21.876;2023-05-07T09:50:35;22.4;91.0
22676;DHT22;12521;43.310;21.876;2023-05-07T09:55:32;22.4;91.0
22676;DHT22;12521;43.310;21.876;2023-05-07T10:00:12;22.7;89.0
22676;DHT22;12521;43.310;21.876;2023-05-07T10:04:55;22.7;89.0
22676;DHT22;12521;43.310;21.876;2023-05-07T10:09:35;22.7;89.0
22676;DHT22;12521;43.310;21.876;2023-05-07T10:14:15;23.0;88.0
22676;DHT22;12521;43.310;21.876;2023-05-07T10:18:58;23.0;88.0
22676;DHT22;12521;43.310;21.876;2023-05-07T10:23:36;23.3;86.0
22676;DHT22;12521;43.310;21.876;2023-05-07T10:28:18;23.3;86.0
22676;DHT22;12521;43.310;21.876;2023-05-07T10:33:06;23.6;85.0
22676;DHT22;12521;43.310;21.876;2023-05-07T10:37:51;23.6;85.0
22676;DHT22;12521;43.310;21.876;2023-05-07T10:42:29;23.8;84.0
22676;DHT22;12521;43.310;21.876;2023-05-07T10:47:09;23.8;84.0
22676;DHT22;12521;43.310;21.876;2023-05-07T10:52:13;24.1;83.0
22676;DHT22;12521;43.310;21.876;2023-05-07T10:56:56;24.1;83.0
22676;DHT22;12521;43.310;21.876;2023-05-07T11:02:09;24.5;82.0
22676;DHT22;12521;43.310;21.876;2023-05-07T11:07:25;24.5;82.0
22676;DHT22;12521;43.310;21.876;2023-05-07T11:12:06;24.8;81.0
22676;DHT22;12521;43.310;21.876;2023-05-07T11:16:44;24.8;81.0
22676;DHT22;12521;43.310;21.876;2023-05-07T11:21:39;25.2;80.0
22676;DHT22;12521;43.310;21.876;2023-05-07T11:26:19;25.2;80.0
22676;DHT22;12521;43.310;21.876;2023-05-07T11:30:57;25.7;79.0
22676;DHT22;12521;43.310;21.876;2023-05-07T11:35:37;25.7;79.0
22676;DHT22;12521;43.310;21.876;2023-05-07T11:40:14;26.0;77.0
22676;DHT22;12521;43.310;21.876;2023-05-07T11:44:51;26.0;77.0
22676;DHT22;12521;43.310;21.876;2023-05-07T11:49:27;26.0;77.0
22676;DHT22;12521;43.310;21.876;2023-05-07T11:54:06;26.4;74.0
22676;DHT22;12521;43.310;21.876;2023-05-07T11:58:47;26.4;74.0
22676;DHT22;12521;43.310;21.876;2023-05-07T12:03:24;26.5;73.0
22676;DHT22;12521;43.310;21.876;2023-05-07T12:08:02;26.5;73.0
22676;DHT22;12521;43.310;21.876;2023-05-07T12:12:40;26.6;72.0
22676;DHT22;12521;43.310;21.876;2023-05-07T12:17:22;26.6;72.0
22676;DHT22;12521;43.310;21.876;2023-05-07T12:21:59;26.8;71.0
22676;DHT22;12521;43.310;21.876;2023-05-07T12:26:39;26.8;71.0
22676;DHT22;12521;43.310;21.876;2023-05-07T12:31:17;26.9;69.0
22676;DHT22;12521;43.310;21.876;2023-05-07T12:35:55;26.9;69.0
22676;DHT22;12521;43.310;21.876;2023-05-07T12:40:37;27.3;69.0
22676;DHT22;12521;43.310;21.876;2023-05-07T12:45:20;27.3;69.0
22676;DHT22;12521;43.310;21.876;2023-05-07T12:49:57;27.3;69.0
22676;DHT22;12521;43.310;21.876;2023-05-07T12:54:38;27.7;68.0
22676;DHT22;12521;43.310;21.876;2023-05-07T12:59:14;27.7;68.0
22676;DHT22;12521;43.310;21.876;2023-05-07T13:03:50;27.8;68.0
22676;DHT22;12521;43.310;21.876;2023-05-07T13:08:30;27.8;68.0
22676;DHT22;12521;43.310;21.876;2023-05-07T13:13:10;27.8;68.0
22676;DHT22;12521;43.310;21.876;2023-05-07T13:17:46;27.8;68.0
22676;DHT22;12521;43.310;21.876;2023-05-07T13:22:22;27.8;68.0
22676;DHT22;12521;43.310;21.876;2023-05-07T13:26:58;27.8;68.0
22676;DHT22;12521;43.310;21.876;2023-05-07T13:31:35;27.8;68.0
22676;DHT22;12521;43.310;21.876;2023-05-07T13:36:11;27.8;68.0
22676;DHT22;12521;43.310;21.876;2023-05-07T13:40:48;28.2;68.0
22676;DHT22;12521;43.310;21.876;2023-05-07T13:45:25;28.2;68.0
22676;DHT22;12521;43.310;21.876;2023-05-07T13:50:02;28.2;68.0
22676;DHT22;12521;43.310;21.876;2023-05-07T13:54:42;28.7;67.0
22676;DHT22;12521;43.310;21.876;2023-05-07T13:59:19;28.7;67.0
22676;DHT22;12521;43.310;21.876;2023-05-07T14:03:56;28.9;67.0
22676;DHT22;12521;43.310;21.876;2023-05-07T14:08:33;28.9;67.0
22676;DHT22;12521;43.310;21.876;2023-05-07T14:13:09;29.1;66.0
22676;DHT22;12521;43.310;21.876;2023-05-07T14:17:46;29.1;66.0
22676;DHT22;12521;43.310;21.876;2023-05-07T14:22:23;29.0;67.0
22676;DHT22;12521;43.310;21.876;2023-05-07T14:26:59;29.0;67.0
22676;DHT22;12521;43.310;21.876;2023-05-07T14:31:36;28.8;67.0
22676;DHT22;12521;43.310;21.876;2023-05-07T14:36:12;28.8;67.0
22676;DHT22;12521;43.310;21.876;2023-05-07T14:40:49;28.9;67.0
22676;DHT22;12521;43.310;21.876;2023-05-07T14:45:25;28.9;67.0
22676;DHT22;12521;43.310;21.876;2023-05-07T14:50:02;28.9;67.0
22676;DHT22;12521;43.310;21.876;2023-05-07T14:54:41;29.0;66.0
22676;DHT22;12521;43.310;21.876;2023-05-07T14:59:19;29.0;66.0
22676;DHT22;12521;43.310;21.876;2023-05-07T15:03:56;29.0;66.0
22676;DHT22;12521;43.310;21.876;2023-05-07T15:08:33;29.0;66.0
22676;DHT22;12521;43.310;21.876;2023-05-07T15:13:12;29.1;66.0
22676;DHT22;12521;43.310;21.876;2023-05-07T15:17:48;29.1;66.0
22676;DHT22;12521;43.310;21.876;2023-05-07T15:22:25;29.1;66.0
22676;DHT22;12521;43.310;21.876;2023-05-07T15:27:02;29.1;66.0
22676;DHT22;12521;43.310;21.876;2023-05-07T15:40:53;28.2;67.0
22676;DHT22;12521;43.310;21.876;2023-05-07T15:45:29;28.2;67.0
22676;DHT22;12521;43.310;21.876;2023-05-07T15:50:09;28.2;67.0
22676;DHT22;12521;43.310;21.876;2023-05-07T15:54:45;28.2;67.0
22676;DHT22;12521;43.310;21.876;2023-05-07T15:59:21;28.2;67.0
22676;DHT22;12521;43.310;21.876;2023-05-07T16:03:58;28.4;67.0
22676;DHT22;12521;43.310;21.876;2023-05-07T16:08:34;28.4;67.0
22676;DHT22;12521;43.310;21.876;2023-05-07T16:13:10;28.6;66.0
22676;DHT22;12521;43.310;21.876;2023-05-07T16:17:48;28.6;66.0
22676;DHT22;12521;43.310;21.876;2023-05-07T16:22:25;29.6;65.0
22676;DHT22;12521;43.310;21.876;2023-05-07T16:27:02;29.6;65.0
22676;DHT22;12521;43.310;21.876;2023-05-07T16:31:39;30.7;63.0
22676;DHT22;12521;43.310;21.876;2023-05-07T16:36:15;30.7;63.0
22676;DHT22;12521;43.310;21.876;2023-05-07T16:40:52;30.0;63.0
22676;DHT22;12521;43.310;21.876;2023-05-07T16:45:29;30.0;63.0
22676;DHT22;12521;43.310;21.876;2023-05-07T16:50:09;30.0;63.0
22676;DHT22;12521;43.310;21.876;2023-05-07T16:54:46;29.2;64.0
22676;DHT22;12521;43.310;21.876;2023-05-07T16:59:23;29.2;64.0
22676;DHT22;12521;43.310;21.876;2023-05-07T17:03:59;27.8;68.0
22676;DHT22;12521;43.310;21.876;2023-05-07T17:08:36;27.8;68.0
22676;DHT22;12521;43.310;21.876;2023-05-07T17:13:13;26.3;71.0
22676;DHT22;12521;43.310;21.876;2023-05-07T17:17:49;26.3;71.0
22676;DHT22;12521;43.310;21.876;2023-05-07T17:22:26;25.5;74.0
22676;DHT22;12521;43.310;21.876;2023-05-07T17:27:03;25.5;74.0
22676;DHT22;12521;43.310;21.876;2023-05-07T17:31:39;24.7;76.0
22676;DHT22;12521;43.310;21.876;2023-05-07T17:36:16;24.7;76.0
22676;DHT22;12521;43.310;21.876;2023-05-07T17:40:53;24.4;78.0
22676;DHT22;12521;43.310;21.876;2023-05-07T17:45:32;24.4;78.0
22676;DHT22;12521;43.310;21.876;2023-05-07T17:50:12;24.4;78.0
22676;DHT22;12521;43.310;21.876;2023-05-07T17:54:49;24.1;80.0
22676;DHT22;12521;43.310;21.876;2023-05-07T17:59:27;24.1;80.0
22676;DHT22;12521;43.310;21.876;2023-05-07T18:04:04;23.9;81.0
22676;DHT22;12521;43.310;21.876;2023-05-07T18:08:40;23.9;81.0
22676;DHT22;12521;43.310;21.876;2023-05-07T18:13:16;23.7;82.0
22676;DHT22;12521;43.310;21.876;2023-05-07T18:17:52;23.7;82.0
22676;DHT22;12521;43.310;21.876;2023-05-07T18:22:29;23.3;83.0
22676;DHT22;12521;43.310;21.876;2023-05-07T18:27:05;23.3;83.0
22676;DHT22;12521;43.310;21.876;2023-05-07T18:31:41;22.9;84.0
22676;DHT22;12521;43.310;21.876;2023-05-07T18:36:17;22.9;84.0
22676;DHT22;12521;43.310;21.876;2023-05-07T18:41:01;22.6;85.0
22676;DHT22;12521;43.310;21.876;2023-05-07T18:45:38;22.6;85.0
22676;DHT22;12521;43.310;21.876;2023-05-07T18:50:15;22.6;85.0
22676;DHT22;12521;43.310;21.876;2023-05-07T18:54:51;22.3;85.0
22676;DHT22;12521;43.310;21.876;2023-05-07T18:59:28;22.3;85.0
22676;DHT22;12521;43.310;21.876;2023-05-07T19:04:04;22.0;86.0
22676;DHT22;12521;43.310;21.876;2023-05-07T19:08:41;22.0;86.0
22676;DHT22;12521;43.310;21.876;2023-05-07T19:13:18;21.8;87.0
22676;DHT22;12521;43.310;21.876;2023-05-07T19:17:55;21.8;87.0
22676;DHT22;12521;43.310;21.876;2023-05-07T19:22:31;21.7;87.0
22676;DHT22;12521;43.310;21.876;2023-05-07T19:27:08;21.7;87.0
22676;DHT22;12521;43.310;21.876;2023-05-07T19:31:45;21.6;88.0
22676;DHT22;12521;43.310;21.876;2023-05-07T19:36:22;21.6;88.0
22676;DHT22;12521;43.310;21.876;2023-05-07T19:40:58;21.4;88.0
22676;DHT22;12521;43.310;21.876;2023-05-07T19:45:35;21.4;88.0
22676;DHT22;12521;43.310;21.876;2023-05-07T19:50:11;21.4;88.0
22676;DHT22;12521;43.310;21.876;2023-05-07T19:54:49;21.2;89.0
22676;DHT22;12521;43.310;21.876;2023-05-07T19:59:26;21.2;89.0
22676;DHT22;12521;43.310;21.876;2023-05-07T20:04:04;20.8;91.0
22676;DHT22;12521;43.310;21.876;2023-05-07T20:08:41;20.8;91.0
22676;DHT22;12521;43.310;21.876;2023-05-07T20:13:18;20.5;92.0
22676;DHT22;12521;43.310;21.876;2023-05-07T20:17:55;20.5;92.0
22676;DHT22;12521;43.310;21.876;2023-05-07T20:22:32;20.2;94.0
22676;DHT22;12521;43.310;21.876;2023-05-07T20:27:08;20.2;94.0
22676;DHT22;12521;43.310;21.876;2023-05-07T20:31:45;19.8;96.0
22676;DHT22;12521;43.310;21.876;2023-05-07T20:36:22;19.8;96.0
22676;DHT22;12521;43.310;21.876;2023-05-07T20:41:06;19.6;96.0
22676;DHT22;12521;43.310;21.876;2023-05-07T20:45:46;19.6;96.0
22676;DHT22;12521;43.310;21.876;2023-05-07T20:50:25;19.6;96.0
22676;DHT22;12521;43.310;21.876;2023-05-07T20:55:04;19.3;96.0
22676;DHT22;12521;43.310;21.876;2023-05-07T20:59:43;19.3;96.0
22676;DHT22;12521;43.310;21.876;2023-05-07T21:04:19;19.0;96.0
22676;DHT22;12521;43.310;21.876;2023-05-07T21:08:55;19.0;96.0
22676;DHT22;12521;43.310;21.876;2023-05-07T21:13:32;18.8;96.0
22676;DHT22;12521;43.310;21.876;2023-05-07T21:18:08;18.8;96.0
22676;DHT22;12521;43.310;21.876;2023-05-07T21:22:45;18.6;96.0
22676;DHT22;12521;43.310;21.876;2023-05-07T21:27:22;18.6;96.0
22676;DHT22;12521;43.310;21.876;2023-05-07T21:31:59;18.4;96.0
22676;DHT22;12521;43.310;21.876;2023-05-07T21:36:36;18.4;96.0
22676;DHT22;12521;43.310;21.876;2023-05-07T21:41:13;18.2;96.0
22676;DHT22;12521;43.310;21.876;2023-05-07T21:45:50;18.2;96.0
22676;DHT22;12521;43.310;21.876;2023-05-07T21:50:26;18.2;96.0
22676;DHT22;12521;43.310;21.876;2023-05-07T21:55:06;18.1;96.0
22676;DHT22;12521;43.310;21.876;2023-05-07T21:59:45;18.1;96.0
22676;DHT22;12521;43.310;21.876;2023-05-07T22:04:22;18.0;96.0
22676;DHT22;12521;43.310;21.876;2023-05-07T22:08:59;18.0;96.0
22676;DHT22;12521;43.310;21.876;2023-05-07T22:13:35;18.0;96.0
22676;DHT22;12521;43.310;21.876;2023-05-07T22:18:11;18.0;96.0
22676;DHT22;12521;43.310;21.876;2023-05-07T22:22:53;17.9;96.0
22676;DHT22;12521;43.310;21.876;2023-05-07T22:27:31;17.9;96.0
22676;DHT22;12521;43.310;21.876;2023-05-07T22:32:08;17.8;96.0
22676;DHT22;12521;43.310;21.876;2023-05-07T22:36:44;17.8;96.0
22676;DHT22;12521;43.310;21.876;2023-05-07T22:41:21;17.6;96.0
22676;DHT22;12521;43.310;21.876;2023-05-07T22:45:58;17.6;96.0
22676;DHT22;12521;43.310;21.876;2023-05-07T22:50:37;17.6;96.0
22676;DHT22;12521;43.310;21.876;2023-05-07T22:55:15;17.5;96.0
22676;DHT22;12521;43.310;21.876;2023-05-07T22:59:54;17.5;96.0
22676;DHT22;12521;43.310;21.876;2023-05-07T23:04:31;17.4;96.0
22676;DHT22;12521;43.310;21.876;2023-05-07T23:09:09;17.4;96.0
22676;DHT22;12521;43.310;21.876;2023-05-07T23:13:46;17.2;96.0
22676;DHT22;12521;43.310;21.876;2023-05-07T23:18:22;17.2;96.0
22676;DHT22;12521;43.310;21.876;2023-05-07T23:22:59;17.0;96.0
22676;DHT22;12521;43.310;21.876;2023-05-07T23:27:36;17.0;96.0
22676;DHT22;12521;43.310;21.876;2023-05-07T23:32:13;16.8;96.0
22676;DHT22;12521;43.310;21.876;2023-05-07T23:36:50;16.8;96.0
22676;DHT22;12521;43.310;21.876;2023-05-07T23:41:26;16.7;96.0
22676;DHT22;12521;43.310;21.876;2023-05-07T23:46:02;16.7;96.0
22676;DHT22;12521;43.310;21.876;2023-05-07T23:50:39;16.7;96.0
22676;DHT22;12521;43.310;21.876;2023-05-07T23:55:16;16.6;96.0
22676;DHT22;12521;43.310;21.876;2023-05-07T23:59:52;16.6;96.0
